North Kingstown, RI

7:22 AM EDT on October 25, 2014 (GMT -0400)
Newport State | Change Station
CLOSE
Current Station
Airport
Location: Newport,
Elevation: 171 ft
Nearby Weather Stations

Elev 171 ft 41.53 °N, 71.28 °W | Updated 29 minutes ago

Partly Cloudy
Partly Cloudy
45 °F
Feels Like 44 °F
N
4
Wind Variable Wind from WNW

Today
High -- | Low -- °F
--% Chance of Precip.
Yesterday
High -- | Low -- °F
Precip. -- in
7:09 AM 5:49 PM
Waxing Crescent, 3% visible
Pressure 29.79 in
Visibility 10.0 miles
Clouds Clear
Windchill 44 °F
Dew Point 39 °F
Humidity 80%
Rainfall 0.00 in
Snow Depth Not available.
UV 0 out of 12
Pollen 1.10 out of 12
Ozone Good
PM2.5 Good
Flu Activity No Activity
METAR KUUU 251053Z AUTO 29003KT 10SM CLR 07/04 A2979 RMK AO2 SLP087 T00720039

More Conditions Fewer Conditions

Pressure 29.79 in
Visibility 10.0 miles
Clouds Clear
Windchill 44 °F
Dew Point 39 °F
Humidity 80%
Rainfall 0.00 in
Snow Depth Not available.
UV 0 out of 12
Pollen 1.10 out of 12
Ozone Good
PM2.5 Good
Flu Activity No Activity
METAR KUUU 251053Z AUTO 29003KT 10SM CLR 07/04 A2979 RMK AO2 SLP087 T00720039

More Conditions Fewer Conditions

10-Day Weather Forecast

Almanac

Astronomy

Oct. 25, 2014 Rise Set
Actual Time 7:09 AM EDT 5:49 PM EDT
Civil Twilight 6:40 AM EDT 6:18 PM EDT
Nautical Twilight 6:08 AM EDT 6:50 PM EDT
Astronomical Twilight 5:36 AM EDT 7:22 PM EDT
Moon 8:46 AM EDT 7:09 PM EDT
Length of Visible Light 11h 37m
Length of Day
10h 40m
Tomorrow will be 2m 34s shorter.
Waxing Crescent, 3% of the Moon is Illuminated
Today
Waxing Crescent
Oct 30
First Quarter
Nov 6
Full
Nov 14
Last Quarter
Nov 22
New

Today's Extremes

State Highs State Lows

Community

WunderPhotos

Upload Photos

1,764,810 photos uploaded!

Nearby

Air Quality

  Air Quality AQ Index Pollutant
Yesterday Good
OZONE
Yesterday Good
PM2.5
Current Good
PM2.5
Current Good
OZONE
Saturday Good
OZONE
Saturday Good
PM2.5
Sunday Good
OZONE
Sunday Good
PM2.5
Monday Good
OZONE
Monday Good
PM2.5

Snow Depth

Station Depth Elevation
No new snow has been reported.

Earthquake Activity

City Distance Mag. Time & Date
No recent earthquake activity has been reported nearby.
Minimum magnitude displayed is 2.5.

Coastal Water Temperatures

Place Temperature
Newport, RI 60.1 °F
Quonset Point, RI 57.9 °F
Conimicut Light, RI 59.0 °F

Nearby Weather Stations